GSAJM EGHH-EGHH
Flight info
| Callsign | GSAJM |
|---|---|
| Flight time | 1h 39m |
| Altitude | 6000 |
| Route | DCT EGTE DCT |
| Aircraft | DA42/L-V/N |
Departure
| Time | 2026-05-03 21:03 |
|---|---|
| Airport | Bournemouth Airport (EGHH) |
Arrival
| Time | 2026-05-03 22:43 |
|---|---|
| Airport | Bournemouth Airport (EGHH) |
| Time | Latitude | Longitude | Altitude | Speed | Heading |
|---|---|---|---|---|---|
| 2026-05-03 20:48 | 50.78446 | -1.83656 | 13 ft | 0 kts | 51° |
| 2026-05-03 20:53 | 50.78439 | -1.83612 | 40 ft | 6 kts | 122° |
| 2026-05-03 20:53 | 50.78395 | -1.83549 | 40 ft | 11 kts | 118° |
| 2026-05-03 20:54 | 50.78392 | -1.83525 | 40 ft | 0 kts | 99° |
| 2026-05-03 20:57 | 50.78390 | -1.83510 | 40 ft | 9 kts | 107° |
| 2026-05-03 20:57 | 50.78377 | -1.83466 | 40 ft | 8 kts | 116° |
| 2026-05-03 20:57 | 50.78350 | -1.83381 | 40 ft | 9 kts | 117° |
| 2026-05-03 20:58 | 50.78318 | -1.83283 | 40 ft | 10 kts | 118° |
| 2026-05-03 20:58 | 50.78295 | -1.83211 | 40 ft | 4 kts | 114° |
| 2026-05-03 20:58 | 50.78294 | -1.83207 | 40 ft | 0 kts | 114° |
| 2026-05-03 21:01 | 50.78271 | -1.83137 | 40 ft | 10 kts | 118° |
| 2026-05-03 21:01 | 50.78219 | -1.83059 | 38 ft | 10 kts | 188° |
| 2026-05-03 21:02 | 50.78198 | -1.83097 | 39 ft | 0 kts | 253° |
| 2026-05-03 21:02 | 50.78185 | -1.83163 | 39 ft | 19 kts | 251° |
| 2026-05-03 21:02 | 50.78180 | -1.83197 | 39 ft | 0 kts | 259° |
| 2026-05-03 21:02 | 50.78131 | -1.83494 | 40 ft | 59 kts | 255° |
| 2026-05-03 21:03 | 50.77998 | -1.84300 | 112 ft | 83 kts | 256° |
| 2026-05-03 21:03 | 50.77852 | -1.85238 | 318 ft | 90 kts | 257° |
| 2026-05-03 21:03 | 50.77783 | -1.86254 | 591 ft | 94 kts | 271° |
| 2026-05-03 21:03 | 50.77811 | -1.87318 | 851 ft | 100 kts | 269° |
| 2026-05-03 21:04 | 50.77769 | -1.88395 | 1172 ft | 99 kts | 264° |
| 2026-05-03 21:04 | 50.77721 | -1.89486 | 1497 ft | 98 kts | 265° |
| 2026-05-03 21:04 | 50.77688 | -1.90576 | 1793 ft | 101 kts | 268° |
| 2026-05-03 21:04 | 50.77667 | -1.91690 | 2101 ft | 103 kts | 267° |
| 2026-05-03 21:05 | 50.77591 | -1.92843 | 2382 ft | 105 kts | 263° |
| 2026-05-03 21:05 | 50.77519 | -1.93983 | 2685 ft | 106 kts | 265° |
| 2026-05-03 21:05 | 50.77454 | -1.95150 | 2938 ft | 106 kts | 263° |
| 2026-05-03 21:05 | 50.77421 | -1.96317 | 3190 ft | 107 kts | 268° |
| 2026-05-03 21:06 | 50.77402 | -1.97495 | 3457 ft | 106 kts | 267° |
| 2026-05-03 21:06 | 50.77380 | -1.98659 | 3699 ft | 108 kts | 269° |
| 2026-05-03 21:06 | 50.77401 | -1.99826 | 3983 ft | 106 kts | 269° |
| 2026-05-03 21:06 | 50.77417 | -2.01010 | 4223 ft | 107 kts | 269° |
| 2026-05-03 21:07 | 50.77386 | -2.02169 | 4484 ft | 108 kts | 262° |
| 2026-05-03 21:07 | 50.77276 | -2.03342 | 4778 ft | 104 kts | 257° |
| 2026-05-03 21:07 | 50.77120 | -2.04475 | 4985 ft | 109 kts | 259° |
| 2026-05-03 21:07 | 50.77053 | -2.05679 | 5241 ft | 109 kts | 269° |
| 2026-05-03 21:08 | 50.77060 | -2.06849 | 5490 ft | 110 kts | 268° |
| 2026-05-03 21:08 | 50.77039 | -2.08069 | 5739 ft | 110 kts | 263° |
| 2026-05-03 21:08 | 50.77000 | -2.09262 | 5999 ft | 111 kts | 265° |
| 2026-05-03 21:08 | 50.76964 | -2.10586 | 6021 ft | 129 kts | 266° |
| 2026-05-03 21:09 | 50.76917 | -2.12036 | 6025 ft | 136 kts | 265° |
| 2026-05-03 21:09 | 50.76885 | -2.13548 | 6091 ft | 136 kts | 266° |
| 2026-05-03 21:09 | 50.76828 | -2.15070 | 6091 ft | 140 kts | 263° |
| 2026-05-03 21:09 | 50.76729 | -2.16622 | 6053 ft | 145 kts | 262° |
| 2026-05-03 21:10 | 50.76574 | -2.18204 | 6068 ft | 144 kts | 257° |
| 2026-05-03 21:10 | 50.76412 | -2.19798 | 5977 ft | 151 kts | 261° |
| 2026-05-03 21:10 | 50.76345 | -2.21449 | 5967 ft | 149 kts | 266° |
| 2026-05-03 21:10 | 50.76318 | -2.23090 | 5946 ft | 149 kts | 265° |
| 2026-05-03 21:11 | 50.76241 | -2.24700 | 5974 ft | 146 kts | 262° |
| 2026-05-03 21:11 | 50.76161 | -2.26299 | 5966 ft | 146 kts | 264° |
| 2026-05-03 21:11 | 50.76093 | -2.27905 | 5949 ft | 147 kts | 265° |
| 2026-05-03 21:11 | 50.76077 | -2.29518 | 5970 ft | 146 kts | 268° |
| 2026-05-03 21:12 | 50.76076 | -2.31118 | 5991 ft | 145 kts | 267° |
| 2026-05-03 21:12 | 50.76035 | -2.32703 | 6009 ft | 144 kts | 264° |
| 2026-05-03 21:12 | 50.75955 | -2.34281 | 6039 ft | 144 kts | 264° |
| 2026-05-03 21:12 | 50.75880 | -2.35868 | 6027 ft | 146 kts | 263° |
| 2026-05-03 21:13 | 50.75792 | -2.37467 | 6037 ft | 145 kts | 263° |
| 2026-05-03 21:13 | 50.75716 | -2.39060 | 6040 ft | 146 kts | 262° |
| 2026-05-03 21:13 | 50.75587 | -2.40639 | 6047 ft | 145 kts | 260° |
| 2026-05-03 21:13 | 50.75450 | -2.42220 | 6049 ft | 145 kts | 261° |
| 2026-05-03 21:14 | 50.75340 | -2.43810 | 6043 ft | 146 kts | 262° |
| 2026-05-03 21:14 | 50.75231 | -2.45412 | 6023 ft | 147 kts | 263° |
| 2026-05-03 21:14 | 50.75168 | -2.47023 | 6028 ft | 147 kts | 266° |
| 2026-05-03 21:14 | 50.75134 | -2.48635 | 6024 ft | 147 kts | 267° |
| 2026-05-03 21:15 | 50.75146 | -2.50250 | 6011 ft | 147 kts | 269° |
| 2026-05-03 21:15 | 50.75135 | -2.51861 | 6014 ft | 146 kts | 265° |
| 2026-05-03 21:15 | 50.75009 | -2.53451 | 6002 ft | 146 kts | 256° |
| 2026-05-03 21:15 | 50.74683 | -2.54970 | 5990 ft | 146 kts | 246° |
| 2026-05-03 21:16 | 50.74248 | -2.56395 | 6009 ft | 144 kts | 239° |
| 2026-05-03 21:16 | 50.73633 | -2.57684 | 5910 ft | 149 kts | 226° |
| 2026-05-03 21:16 | 50.73181 | -2.59080 | 5983 ft | 145 kts | 258° |
| 2026-05-03 21:16 | 50.73143 | -2.60646 | 6074 ft | 141 kts | 265° |
| 2026-05-03 21:17 | 50.73005 | -2.62198 | 6014 ft | 146 kts | 255° |
| 2026-05-03 21:17 | 50.72833 | -2.63230 | 5999 ft | 147 kts | 252° |
| 2026-05-03 21:17 | 50.72507 | -2.65294 | 6019 ft | 146 kts | 256° |
| 2026-05-03 21:17 | 50.72301 | -2.66871 | 6029 ft | 145 kts | 256° |
| 2026-05-03 21:18 | 50.72037 | -2.68428 | 5967 ft | 149 kts | 250° |
| 2026-05-03 21:18 | 50.71711 | -2.69962 | 5967 ft | 147 kts | 250° |
| 2026-05-03 21:18 | 50.71411 | -2.71516 | 5938 ft | 148 kts | 253° |
| 2026-05-03 21:18 | 50.71170 | -2.73076 | 5930 ft | 148 kts | 255° |
| 2026-05-03 21:19 | 50.70942 | -2.74650 | 5935 ft | 147 kts | 256° |
| 2026-05-03 21:19 | 50.70827 | -2.76243 | 5944 ft | 147 kts | 271° |
| 2026-05-03 21:19 | 50.70907 | -2.77855 | 5912 ft | 149 kts | 271° |
| 2026-05-03 21:19 | 50.70967 | -2.79451 | 5996 ft | 143 kts | 271° |
| 2026-05-03 21:20 | 50.71013 | -2.81042 | 5979 ft | 145 kts | 269° |
| 2026-05-03 21:20 | 50.71053 | -2.82608 | 6044 ft | 144 kts | 271° |
| 2026-05-03 21:20 | 50.71147 | -2.84208 | 5999 ft | 148 kts | 273° |
| 2026-05-03 21:20 | 50.71235 | -2.85836 | 5969 ft | 150 kts | 271° |
| 2026-05-03 21:21 | 50.71307 | -2.87475 | 5980 ft | 148 kts | 272° |
| 2026-05-03 21:21 | 50.71367 | -2.89080 | 6002 ft | 147 kts | 270° |
| 2026-05-03 21:21 | 50.71426 | -2.90701 | 5980 ft | 149 kts | 272° |
| 2026-05-03 21:21 | 50.71521 | -2.92344 | 5955 ft | 150 kts | 273° |
| 2026-05-03 21:22 | 50.71616 | -2.93986 | 5948 ft | 150 kts | 271° |
| 2026-05-03 21:22 | 50.71669 | -2.95621 | 5936 ft | 150 kts | 269° |
| 2026-05-03 21:22 | 50.71673 | -2.97267 | 5933 ft | 149 kts | 268° |
| 2026-05-03 21:22 | 50.71679 | -2.98902 | 5916 ft | 150 kts | 269° |
| 2026-05-03 21:23 | 50.71707 | -3.00533 | 5865 ft | 151 kts | 268° |
| 2026-05-03 21:23 | 50.71798 | -3.02194 | 5826 ft | 153 kts | 276° |
| 2026-05-03 21:23 | 50.71949 | -3.03862 | 5721 ft | 157 kts | 276° |
| 2026-05-03 21:23 | 50.72075 | -3.05572 | 5583 ft | 158 kts | 272° |
| 2026-05-03 21:24 | 50.72145 | -3.07300 | 5451 ft | 157 kts | 270° |
| 2026-05-03 21:24 | 50.72194 | -3.09015 | 5321 ft | 156 kts | 271° |
| 2026-05-03 21:24 | 50.72257 | -3.10723 | 5204 ft | 155 kts | 271° |
| 2026-05-03 21:24 | 50.72337 | -3.12400 | 5074 ft | 155 kts | 272° |
| 2026-05-03 21:25 | 50.72412 | -3.14117 | 4949 ft | 155 kts | 271° |
| 2026-05-03 21:25 | 50.72493 | -3.15787 | 4829 ft | 155 kts | 273° |
| 2026-05-03 21:25 | 50.72566 | -3.17478 | 4713 ft | 154 kts | 271° |
| 2026-05-03 21:25 | 50.72616 | -3.19165 | 4586 ft | 153 kts | 270° |
| 2026-05-03 21:26 | 50.72645 | -3.20847 | 4436 ft | 154 kts | 270° |
| 2026-05-03 21:26 | 50.72673 | -3.22542 | 4269 ft | 156 kts | 270° |
| 2026-05-03 21:26 | 50.72712 | -3.24254 | 4104 ft | 157 kts | 271° |
| 2026-05-03 21:26 | 50.72792 | -3.25967 | 3955 ft | 156 kts | 279° |
| 2026-05-03 21:27 | 50.73240 | -3.27504 | 3842 ft | 156 kts | 307° |
| 2026-05-03 21:27 | 50.74052 | -3.28685 | 3612 ft | 161 kts | 324° |
| 2026-05-03 21:27 | 50.74998 | -3.29615 | 3471 ft | 159 kts | 329° |
| 2026-05-03 21:27 | 50.75917 | -3.30526 | 3446 ft | 151 kts | 322° |
| 2026-05-03 21:28 | 50.76761 | -3.31457 | 3460 ft | 147 kts | 327° |
| 2026-05-03 21:28 | 50.77622 | -3.32312 | 3478 ft | 145 kts | 328° |
| 2026-05-03 21:28 | 50.78458 | -3.33211 | 3463 ft | 145 kts | 318° |
| 2026-05-03 21:28 | 50.78989 | -3.34533 | 3444 ft | 144 kts | 284° |
| 2026-05-03 21:29 | 50.79293 | -3.36015 | 3470 ft | 142 kts | 285° |
| 2026-05-03 21:29 | 50.79364 | -3.37540 | 3454 ft | 141 kts | 252° |
| 2026-05-03 21:29 | 50.78792 | -3.38695 | 3464 ft | 137 kts | 208° |
| 2026-05-03 21:29 | 50.77858 | -3.38906 | 3422 ft | 137 kts | 165° |
| 2026-05-03 21:30 | 50.77097 | -3.38071 | 3413 ft | 139 kts | 125° |
| 2026-05-03 21:30 | 50.76743 | -3.36675 | 3454 ft | 136 kts | 108° |
| 2026-05-03 21:30 | 50.76482 | -3.35250 | 3490 ft | 134 kts | 106° |
| 2026-05-03 21:30 | 50.76233 | -3.33846 | 3507 ft | 135 kts | 109° |
| 2026-05-03 21:31 | 50.75936 | -3.32453 | 3525 ft | 135 kts | 110° |
| 2026-05-03 21:31 | 50.75638 | -3.31040 | 3518 ft | 136 kts | 109° |
| 2026-05-03 21:31 | 50.75342 | -3.29614 | 3510 ft | 137 kts | 109° |
| 2026-05-03 21:31 | 50.75121 | -3.28149 | 3504 ft | 139 kts | 92° |
| 2026-05-03 21:32 | 50.75448 | -3.26729 | 3479 ft | 142 kts | 50° |
| 2026-05-03 21:32 | 50.76305 | -3.26007 | 3476 ft | 144 kts | 7° |
| 2026-05-03 21:32 | 50.77257 | -3.26354 | 3462 ft | 143 kts | 325° |
| 2026-05-03 21:32 | 50.77804 | -3.27601 | 3491 ft | 139 kts | 286° |
| 2026-05-03 21:33 | 50.78087 | -3.29061 | 3523 ft | 139 kts | 285° |
| 2026-05-03 21:33 | 50.78383 | -3.30521 | 3517 ft | 141 kts | 286° |
| 2026-05-03 21:33 | 50.78672 | -3.31999 | 3514 ft | 142 kts | 285° |
| 2026-05-03 21:33 | 50.78938 | -3.33489 | 3535 ft | 141 kts | 283° |
| 2026-05-03 21:34 | 50.79180 | -3.34999 | 3504 ft | 143 kts | 283° |
| 2026-05-03 21:34 | 50.79399 | -3.36532 | 3478 ft | 143 kts | 268° |
| 2026-05-03 21:34 | 50.79040 | -3.37940 | 3459 ft | 140 kts | 224° |
| 2026-05-03 21:34 | 50.78180 | -3.38545 | 3456 ft | 137 kts | 180° |
| 2026-05-03 21:35 | 50.77321 | -3.37997 | 3446 ft | 137 kts | 135° |
| 2026-05-03 21:35 | 50.76885 | -3.36666 | 3471 ft | 135 kts | 111° |
| 2026-05-03 21:35 | 50.76581 | -3.35252 | 3469 ft | 136 kts | 108° |
| 2026-05-03 21:35 | 50.76317 | -3.33831 | 3519 ft | 134 kts | 107° |
| 2026-05-03 21:36 | 50.76070 | -3.32404 | 3512 ft | 136 kts | 107° |
| 2026-05-03 21:36 | 50.75766 | -3.30996 | 3513 ft | 136 kts | 114° |
| 2026-05-03 21:36 | 50.75388 | -3.29626 | 3508 ft | 136 kts | 115° |
| 2026-05-03 21:36 | 50.75020 | -3.28246 | 3502 ft | 138 kts | 105° |
| 2026-05-03 21:37 | 50.75129 | -3.26752 | 3469 ft | 142 kts | 62° |
| 2026-05-03 21:37 | 50.75882 | -3.25806 | 3502 ft | 141 kts | 16° |
| 2026-05-03 21:37 | 50.76849 | -3.25922 | 3465 ft | 144 kts | 333° |
| 2026-05-03 21:37 | 50.77498 | -3.27063 | 3448 ft | 143 kts | 289° |
| 2026-05-03 21:38 | 50.77772 | -3.28556 | 3482 ft | 139 kts | 284° |
| 2026-05-03 21:38 | 50.78049 | -3.30024 | 3494 ft | 140 kts | 285° |
| 2026-05-03 21:38 | 50.78319 | -3.31482 | 3492 ft | 141 kts | 283° |
| 2026-05-03 21:38 | 50.78556 | -3.32976 | 3513 ft | 140 kts | 281° |
| 2026-05-03 21:39 | 50.78760 | -3.34481 | 3545 ft | 139 kts | 281° |
| 2026-05-03 21:39 | 50.78970 | -3.35974 | 3540 ft | 140 kts | 276° |
| 2026-05-03 21:39 | 50.78752 | -3.37439 | 3485 ft | 141 kts | 233° |
| 2026-05-03 21:39 | 50.77945 | -3.38246 | 3466 ft | 137 kts | 189° |
| 2026-05-03 21:40 | 50.77033 | -3.37950 | 3447 ft | 137 kts | 147° |
| 2026-05-03 21:40 | 50.76473 | -3.36750 | 3444 ft | 137 kts | 112° |
| 2026-05-03 21:40 | 50.76178 | -3.35342 | 3493 ft | 134 kts | 109° |
| 2026-05-03 21:40 | 50.75885 | -3.33944 | 3537 ft | 132 kts | 111° |
| 2026-05-03 21:41 | 50.75580 | -3.32574 | 3543 ft | 135 kts | 108° |
| 2026-05-03 21:41 | 50.75328 | -3.31139 | 3549 ft | 135 kts | 105° |
| 2026-05-03 21:41 | 50.75192 | -3.30183 | 3571 ft | 135 kts | 103° |
| 2026-05-03 21:41 | 50.74878 | -3.28261 | 3551 ft | 137 kts | 108° |
| 2026-05-03 21:42 | 50.74694 | -3.27306 | 3529 ft | 139 kts | 108° |
| 2026-05-03 21:42 | 50.74311 | -3.25321 | 3425 ft | 142 kts | 106° |
| 2026-05-03 21:42 | 50.74060 | -3.23820 | 3321 ft | 143 kts | 106° |
| 2026-05-03 21:42 | 50.73788 | -3.22288 | 3158 ft | 146 kts | 106° |
| 2026-05-03 21:43 | 50.73615 | -3.21240 | 3066 ft | 146 kts | 104° |
| 2026-05-03 21:43 | 50.73629 | -3.19647 | 2837 ft | 147 kts | 71° |
| 2026-05-03 21:43 | 50.74240 | -3.18420 | 2627 ft | 146 kts | 33° |
| 2026-05-03 21:43 | 50.75215 | -3.17944 | 2343 ft | 150 kts | 2° |
| 2026-05-03 21:44 | 50.76225 | -3.18284 | 2106 ft | 148 kts | 331° |
| 2026-05-03 21:44 | 50.76861 | -3.19486 | 1904 ft | 144 kts | 284° |
| 2026-05-03 21:44 | 50.76798 | -3.20974 | 1826 ft | 134 kts | 256° |
| 2026-05-03 21:44 | 50.76541 | -3.22386 | 1671 ft | 132 kts | 250° |
| 2026-05-03 21:45 | 50.76308 | -3.23738 | 1622 ft | 122 kts | 254° |
| 2026-05-03 21:45 | 50.76126 | -3.24958 | 1645 ft | 108 kts | 254° |
| 2026-05-03 21:45 | 50.75948 | -3.26014 | 1722 ft | 93 kts | 250° |
| 2026-05-03 21:45 | 50.75747 | -3.27000 | 1729 ft | 96 kts | 248° |
| 2026-05-03 21:46 | 50.75539 | -3.28020 | 1741 ft | 99 kts | 252° |
| 2026-05-03 21:46 | 50.75339 | -3.29063 | 1768 ft | 100 kts | 250° |
| 2026-05-03 21:46 | 50.75104 | -3.30093 | 1777 ft | 102 kts | 246° |
| 2026-05-03 21:46 | 50.74838 | -3.31154 | 1674 ft | 105 kts | 247° |
| 2026-05-03 21:47 | 50.74570 | -3.32220 | 1492 ft | 104 kts | 247° |
| 2026-05-03 21:47 | 50.74350 | -3.33310 | 1304 ft | 104 kts | 257° |
| 2026-05-03 21:47 | 50.74217 | -3.34433 | 1113 ft | 104 kts | 258° |
| 2026-05-03 21:47 | 50.74061 | -3.35532 | 887 ft | 99 kts | 253° |
| 2026-05-03 21:48 | 50.73925 | -3.36577 | 743 ft | 94 kts | 271° |
| 2026-05-03 21:48 | 50.73961 | -3.37477 | 554 ft | 79 kts | 267° |
| 2026-05-03 21:48 | 50.73904 | -3.38332 | 386 ft | 77 kts | 255° |
| 2026-05-03 21:48 | 50.73784 | -3.39137 | 280 ft | 75 kts | 251° |
| 2026-05-03 21:49 | 50.73656 | -3.39962 | 173 ft | 78 kts | 252° |
| 2026-05-03 21:49 | 50.73524 | -3.40754 | 107 ft | 64 kts | 255° |
| 2026-05-03 21:49 | 50.73405 | -3.41535 | 163 ft | 83 kts | 258° |
| 2026-05-03 21:49 | 50.73295 | -3.42409 | 475 ft | 80 kts | 258° |
| 2026-05-03 21:50 | 50.73186 | -3.43293 | 761 ft | 85 kts | 263° |
| 2026-05-03 21:50 | 50.73095 | -3.44204 | 1088 ft | 87 kts | 256° |
| 2026-05-03 21:50 | 50.72922 | -3.45189 | 1355 ft | 97 kts | 250° |
| 2026-05-03 21:50 | 50.72704 | -3.46189 | 1600 ft | 101 kts | 251° |
| 2026-05-03 21:51 | 50.72492 | -3.47232 | 1901 ft | 98 kts | 251° |
| 2026-05-03 21:51 | 50.72311 | -3.48250 | 2168 ft | 98 kts | 252° |
| 2026-05-03 21:51 | 50.72104 | -3.49297 | 2413 ft | 102 kts | 251° |
| 2026-05-03 21:51 | 50.72078 | -3.50490 | 2530 ft | 116 kts | 285° |
| 2026-05-03 21:52 | 50.72553 | -3.51555 | 2601 ft | 125 kts | 323° |
| 2026-05-03 21:52 | 50.73405 | -3.52063 | 2566 ft | 136 kts | 355° |
| 2026-05-03 21:52 | 50.74325 | -3.51735 | 2555 ft | 140 kts | 31° |
| 2026-05-03 21:52 | 50.74972 | -3.50621 | 2578 ft | 138 kts | 65° |
| 2026-05-03 21:53 | 50.75196 | -3.49174 | 2616 ft | 136 kts | 88° |
| 2026-05-03 21:53 | 50.75220 | -3.47701 | 2670 ft | 136 kts | 89° |
| 2026-05-03 21:53 | 50.75263 | -3.46161 | 2582 ft | 143 kts | 89° |
| 2026-05-03 21:53 | 50.75262 | -3.44599 | 2600 ft | 140 kts | 92° |
| 2026-05-03 21:54 | 50.75251 | -3.43058 | 2597 ft | 141 kts | 90° |
| 2026-05-03 21:54 | 50.75331 | -3.41508 | 2581 ft | 142 kts | 82° |
| 2026-05-03 21:54 | 50.75536 | -3.39981 | 2552 ft | 144 kts | 77° |
| 2026-05-03 21:54 | 50.75763 | -3.38447 | 2557 ft | 141 kts | 81° |
| 2026-05-03 21:55 | 50.75871 | -3.36907 | 2492 ft | 145 kts | 88° |
| 2026-05-03 21:55 | 50.75908 | -3.35333 | 2495 ft | 143 kts | 89° |
| 2026-05-03 21:55 | 50.75936 | -3.33760 | 2448 ft | 145 kts | 88° |
| 2026-05-03 21:55 | 50.75974 | -3.32187 | 2467 ft | 141 kts | 92° |
| 2026-05-03 21:56 | 50.75809 | -3.30659 | 2412 ft | 143 kts | 108° |
| 2026-05-03 21:56 | 50.75505 | -3.29149 | 2332 ft | 144 kts | 110° |
| 2026-05-03 21:56 | 50.75187 | -3.27654 | 2242 ft | 144 kts | 108° |
| 2026-05-03 21:56 | 50.74914 | -3.26155 | 2216 ft | 139 kts | 107° |
| 2026-05-03 21:57 | 50.74681 | -3.24682 | 2169 ft | 138 kts | 104° |
| 2026-05-03 21:57 | 50.74492 | -3.23202 | 2131 ft | 135 kts | 103° |
| 2026-05-03 21:57 | 50.74279 | -3.21790 | 2157 ft | 131 kts | 107° |
| 2026-05-03 21:57 | 50.74035 | -3.20413 | 2160 ft | 130 kts | 107° |
| 2026-05-03 21:58 | 50.74011 | -3.19001 | 2185 ft | 129 kts | 71° |
| 2026-05-03 21:58 | 50.74565 | -3.17938 | 2224 ft | 130 kts | 30° |
| 2026-05-03 21:58 | 50.75457 | -3.17696 | 2181 ft | 135 kts | 348° |
| 2026-05-03 21:58 | 50.76251 | -3.18449 | 2150 ft | 135 kts | 307° |
| 2026-05-03 21:59 | 50.76507 | -3.19811 | 2101 ft | 134 kts | 259° |
| 2026-05-03 21:59 | 50.76374 | -3.21214 | 2170 ft | 128 kts | 261° |
| 2026-05-03 21:59 | 50.76281 | -3.22623 | 2166 ft | 126 kts | 264° |
| 2026-05-03 21:59 | 50.76168 | -3.23979 | 2148 ft | 126 kts | 254° |
| 2026-05-03 22:00 | 50.75969 | -3.25320 | 2161 ft | 125 kts | 256° |
| 2026-05-03 22:00 | 50.75781 | -3.26676 | 2108 ft | 128 kts | 255° |
| 2026-05-03 22:00 | 50.75579 | -3.28061 | 1952 ft | 131 kts | 255° |
| 2026-05-03 22:00 | 50.75362 | -3.29457 | 1876 ft | 129 kts | 255° |
| 2026-05-03 22:01 | 50.75143 | -3.30827 | 1684 ft | 129 kts | 254° |
| 2026-05-03 22:01 | 50.74907 | -3.32124 | 1402 ft | 115 kts | 251° |
| 2026-05-03 22:01 | 50.74698 | -3.33286 | 1159 ft | 108 kts | 257° |
| 2026-05-03 22:01 | 50.74529 | -3.34399 | 1010 ft | 103 kts | 255° |
| 2026-05-03 22:02 | 50.74333 | -3.35499 | 808 ft | 103 kts | 252° |
| 2026-05-03 22:02 | 50.74183 | -3.36604 | 653 ft | 103 kts | 257° |
| 2026-05-03 22:02 | 50.74007 | -3.37708 | 474 ft | 103 kts | 254° |
| 2026-05-03 22:02 | 50.73846 | -3.38698 | 324 ft | 87 kts | 253° |
| 2026-05-03 22:03 | 50.73703 | -3.39633 | 216 ft | 88 kts | 254° |
| 2026-05-03 22:03 | 50.73557 | -3.40576 | 114 ft | 87 kts | 255° |
| 2026-05-03 22:03 | 50.73417 | -3.41427 | 101 ft | 87 kts | 256° |
| 2026-05-03 22:03 | 50.73257 | -3.42368 | 305 ft | 87 kts | 250° |
| 2026-05-03 22:04 | 50.73079 | -3.43287 | 504 ft | 88 kts | 252° |
| 2026-05-03 22:04 | 50.72933 | -3.44126 | 779 ft | 84 kts | 254° |
| 2026-05-03 22:04 | 50.72832 | -3.45075 | 1107 ft | 85 kts | 263° |
| 2026-05-03 22:04 | 50.72736 | -3.45970 | 1416 ft | 84 kts | 255° |
| 2026-05-03 22:05 | 50.72605 | -3.46870 | 1732 ft | 82 kts | 254° |
| 2026-05-03 22:05 | 50.72435 | -3.47752 | 2009 ft | 85 kts | 255° |
| 2026-05-03 22:05 | 50.72316 | -3.48666 | 2307 ft | 85 kts | 253° |
| 2026-05-03 22:05 | 50.72331 | -3.49599 | 2561 ft | 92 kts | 290° |
| 2026-05-03 22:06 | 50.72776 | -3.50294 | 2849 ft | 93 kts | 343° |
| 2026-05-03 22:06 | 50.73367 | -3.49973 | 3104 ft | 93 kts | 53° |
| 2026-05-03 22:06 | 50.73542 | -3.49082 | 3411 ft | 88 kts | 100° |
| 2026-05-03 22:06 | 50.73459 | -3.48151 | 3748 ft | 83 kts | 98° |
| 2026-05-03 22:07 | 50.73519 | -3.47203 | 3994 ft | 90 kts | 79° |
| 2026-05-03 22:07 | 50.73666 | -3.46247 | 4274 ft | 92 kts | 79° |
| 2026-05-03 22:07 | 50.73828 | -3.45270 | 4571 ft | 92 kts | 79° |
| 2026-05-03 22:07 | 50.73973 | -3.44267 | 4827 ft | 96 kts | 81° |
| 2026-05-03 22:08 | 50.74104 | -3.43247 | 5138 ft | 93 kts | 82° |
| 2026-05-03 22:08 | 50.74246 | -3.42230 | 5400 ft | 96 kts | 79° |
| 2026-05-03 22:08 | 50.74420 | -3.41217 | 5704 ft | 95 kts | 79° |
| 2026-05-03 22:08 | 50.74531 | -3.40177 | 5974 ft | 97 kts | 88° |
| 2026-05-03 22:09 | 50.74574 | -3.38998 | 6061 ft | 115 kts | 87° |
| 2026-05-03 22:09 | 50.74641 | -3.37650 | 6051 ft | 133 kts | 90° |
| 2026-05-03 22:09 | 50.74662 | -3.36138 | 5993 ft | 142 kts | 91° |
| 2026-05-03 22:10 | 50.74719 | -3.33007 | 5999 ft | 144 kts | 90° |
| 2026-05-03 22:10 | 50.74732 | -3.31464 | 6097 ft | 139 kts | 95° |
| 2026-05-03 22:10 | 50.74672 | -3.29922 | 6086 ft | 142 kts | 96° |
| 2026-05-03 22:10 | 50.74653 | -3.28349 | 6079 ft | 145 kts | 90° |
| 2026-05-03 22:11 | 50.74707 | -3.26745 | 6076 ft | 145 kts | 89° |
| 2026-05-03 22:11 | 50.74815 | -3.25135 | 6026 ft | 149 kts | 84° |
| 2026-05-03 22:11 | 50.74901 | -3.23504 | 5990 ft | 149 kts | 91° |
| 2026-05-03 22:11 | 50.74900 | -3.21859 | 5966 ft | 149 kts | 92° |
| 2026-05-03 22:12 | 50.74901 | -3.20442 | 5983 ft | 147 kts | 92° |
| 2026-05-03 22:12 | 50.74914 | -3.18827 | 5975 ft | 149 kts | 88° |
| 2026-05-03 22:12 | 50.75027 | -3.17191 | 5933 ft | 151 kts | 85° |
| 2026-05-03 22:12 | 50.75190 | -3.15571 | 5957 ft | 148 kts | 83° |
| 2026-05-03 22:13 | 50.75376 | -3.13962 | 5939 ft | 150 kts | 79° |
| 2026-05-03 22:13 | 50.75596 | -3.12357 | 5959 ft | 149 kts | 81° |
| 2026-05-03 22:13 | 50.75793 | -3.10760 | 5958 ft | 149 kts | 81° |
| 2026-05-03 22:13 | 50.76025 | -3.09158 | 5975 ft | 147 kts | 80° |
| 2026-05-03 22:14 | 50.76171 | -3.07576 | 6006 ft | 146 kts | 87° |
| 2026-05-03 22:14 | 50.76203 | -3.05979 | 6021 ft | 145 kts | 93° |
| 2026-05-03 22:14 | 50.76170 | -3.04377 | 6016 ft | 146 kts | 94° |
| 2026-05-03 22:14 | 50.76131 | -3.02801 | 6078 ft | 143 kts | 95° |
| 2026-05-03 22:15 | 50.76096 | -3.01239 | 6070 ft | 145 kts | 93° |
| 2026-05-03 22:15 | 50.76088 | -2.99658 | 6106 ft | 144 kts | 94° |
| 2026-05-03 22:15 | 50.76050 | -2.98077 | 6108 ft | 144 kts | 95° |
| 2026-05-03 22:15 | 50.75999 | -2.96482 | 6089 ft | 147 kts | 95° |
| 2026-05-03 22:16 | 50.75934 | -2.94888 | 6140 ft | 144 kts | 98° |
| 2026-05-03 22:16 | 50.75825 | -2.93320 | 6154 ft | 144 kts | 100° |
| 2026-05-03 22:16 | 50.75703 | -2.91720 | 6114 ft | 148 kts | 95° |
| 2026-05-03 22:16 | 50.75786 | -2.90089 | 6086 ft | 151 kts | 84° |
| 2026-05-03 22:17 | 50.75862 | -2.88450 | 6100 ft | 148 kts | 92° |
| 2026-05-03 22:17 | 50.75865 | -2.86818 | 6077 ft | 149 kts | 90° |
| 2026-05-03 22:17 | 50.75944 | -2.85238 | 6069 ft | 150 kts | 87° |
| 2026-05-03 22:17 | 50.76009 | -2.83598 | 6041 ft | 150 kts | 91° |
| 2026-05-03 22:18 | 50.76004 | -2.81964 | 6065 ft | 146 kts | 94° |
| 2026-05-03 22:18 | 50.75990 | -2.80350 | 6037 ft | 148 kts | 93° |
| 2026-05-03 22:18 | 50.75997 | -2.78732 | 6060 ft | 147 kts | 89° |
| 2026-05-03 22:18 | 50.76061 | -2.77114 | 6061 ft | 148 kts | 89° |
| 2026-05-03 22:19 | 50.76116 | -2.75490 | 6061 ft | 148 kts | 89° |
| 2026-05-03 22:19 | 50.76160 | -2.73866 | 6061 ft | 148 kts | 90° |
| 2026-05-03 22:19 | 50.76200 | -2.72241 | 6062 ft | 148 kts | 90° |
| 2026-05-03 22:19 | 50.76239 | -2.70615 | 6061 ft | 148 kts | 90° |
| 2026-05-03 22:20 | 50.76276 | -2.68987 | 6063 ft | 148 kts | 90° |
| 2026-05-03 22:20 | 50.76317 | -2.67357 | 6062 ft | 149 kts | 90° |
| 2026-05-03 22:20 | 50.76357 | -2.65720 | 6062 ft | 149 kts | 90° |
| 2026-05-03 22:20 | 50.76395 | -2.64084 | 6061 ft | 149 kts | 90° |
| 2026-05-03 22:21 | 50.76433 | -2.62454 | 6062 ft | 149 kts | 90° |
| 2026-05-03 22:21 | 50.76471 | -2.60840 | 6062 ft | 148 kts | 90° |
| 2026-05-03 22:21 | 50.76508 | -2.59228 | 6062 ft | 149 kts | 90° |
| 2026-05-03 22:21 | 50.76545 | -2.57601 | 6062 ft | 149 kts | 90° |
| 2026-05-03 22:22 | 50.76584 | -2.55968 | 6063 ft | 148 kts | 90° |
| 2026-05-03 22:22 | 50.76620 | -2.54341 | 6063 ft | 149 kts | 90° |
| 2026-05-03 22:22 | 50.76656 | -2.52708 | 6062 ft | 149 kts | 90° |
| 2026-05-03 22:22 | 50.76693 | -2.51076 | 6063 ft | 149 kts | 90° |
| 2026-05-03 22:23 | 50.76727 | -2.49442 | 6062 ft | 149 kts | 90° |
| 2026-05-03 22:23 | 50.76756 | -2.47813 | 6061 ft | 148 kts | 90° |
| 2026-05-03 22:23 | 50.76785 | -2.46182 | 6062 ft | 149 kts | 90° |
| 2026-05-03 22:23 | 50.76815 | -2.44551 | 6061 ft | 149 kts | 90° |
| 2026-05-03 22:24 | 50.76846 | -2.42920 | 6061 ft | 148 kts | 90° |
| 2026-05-03 22:24 | 50.76875 | -2.41293 | 6061 ft | 148 kts | 90° |
| 2026-05-03 22:24 | 50.76904 | -2.39667 | 6061 ft | 148 kts | 90° |
| 2026-05-03 22:24 | 50.76933 | -2.38044 | 6061 ft | 148 kts | 90° |
| 2026-05-03 22:25 | 50.76962 | -2.36411 | 6018 ft | 151 kts | 90° |
| 2026-05-03 22:25 | 50.76991 | -2.34717 | 5898 ft | 156 kts | 90° |
| 2026-05-03 22:25 | 50.77021 | -2.33025 | 5891 ft | 153 kts | 90° |
| 2026-05-03 22:25 | 50.77050 | -2.31315 | 5739 ft | 159 kts | 90° |
| 2026-05-03 22:26 | 50.77080 | -2.29565 | 5628 ft | 160 kts | 90° |
| 2026-05-03 22:26 | 50.77110 | -2.27813 | 5525 ft | 160 kts | 90° |
| 2026-05-03 22:26 | 50.77140 | -2.26062 | 5423 ft | 159 kts | 90° |
| 2026-05-03 22:26 | 50.77169 | -2.24313 | 5322 ft | 159 kts | 90° |
| 2026-05-03 22:27 | 50.77197 | -2.22586 | 5222 ft | 159 kts | 90° |
| 2026-05-03 22:27 | 50.77226 | -2.20834 | 5120 ft | 159 kts | 90° |
| 2026-05-03 22:27 | 50.77254 | -2.19092 | 5020 ft | 159 kts | 90° |
| 2026-05-03 22:27 | 50.77283 | -2.17350 | 4919 ft | 159 kts | 90° |
| 2026-05-03 22:28 | 50.77310 | -2.15606 | 4818 ft | 158 kts | 90° |
| 2026-05-03 22:28 | 50.77338 | -2.13868 | 4717 ft | 158 kts | 90° |
| 2026-05-03 22:28 | 50.77356 | -2.12713 | 4649 ft | 158 kts | 90° |
| 2026-05-03 22:28 | 50.77383 | -2.10979 | 4545 ft | 158 kts | 90° |
| 2026-05-03 22:29 | 50.77410 | -2.09247 | 4442 ft | 158 kts | 90° |
| 2026-05-03 22:29 | 50.77436 | -2.07516 | 4337 ft | 158 kts | 90° |
| 2026-05-03 22:29 | 50.77462 | -2.05790 | 4235 ft | 157 kts | 90° |
| 2026-05-03 22:29 | 50.77489 | -2.03994 | 4127 ft | 157 kts | 90° |
| 2026-05-03 22:30 | 50.77514 | -2.02338 | 4028 ft | 157 kts | 90° |
| 2026-05-03 22:30 | 50.77539 | -2.00615 | 3927 ft | 157 kts | 90° |
| 2026-05-03 22:30 | 50.77564 | -1.98899 | 3825 ft | 156 kts | 90° |
| 2026-05-03 22:30 | 50.77589 | -1.97184 | 3720 ft | 156 kts | 90° |
| 2026-05-03 22:31 | 50.77613 | -1.95466 | 3624 ft | 156 kts | 90° |
| 2026-05-03 22:31 | 50.77637 | -1.93756 | 3524 ft | 156 kts | 90° |
| 2026-05-03 22:31 | 50.77661 | -1.92047 | 3382 ft | 154 kts | 90° |
| 2026-05-03 22:31 | 50.77684 | -1.90365 | 3232 ft | 152 kts | 89° |
| 2026-05-03 22:32 | 50.77706 | -1.88708 | 3078 ft | 151 kts | 90° |
| 2026-05-03 22:32 | 50.77729 | -1.87053 | 2967 ft | 149 kts | 90° |
| 2026-05-03 22:32 | 50.77752 | -1.85476 | 2968 ft | 140 kts | 90° |
| 2026-05-03 22:32 | 50.77938 | -1.84000 | 2963 ft | 137 kts | 65° |
| 2026-05-03 22:33 | 50.78392 | -1.82726 | 2964 ft | 134 kts | 60° |
| 2026-05-03 22:33 | 50.78884 | -1.81420 | 2807 ft | 138 kts | 60° |
| 2026-05-03 22:33 | 50.79376 | -1.80117 | 2653 ft | 138 kts | 60° |
| 2026-05-03 22:33 | 50.79866 | -1.78827 | 2505 ft | 139 kts | 60° |
| 2026-05-03 22:34 | 50.80357 | -1.77522 | 2365 ft | 138 kts | 60° |
| 2026-05-03 22:34 | 50.80840 | -1.76219 | 2235 ft | 136 kts | 60° |
| 2026-05-03 22:34 | 50.81317 | -1.74928 | 2109 ft | 136 kts | 60° |
| 2026-05-03 22:34 | 50.81788 | -1.73648 | 1977 ft | 133 kts | 60° |
| 2026-05-03 22:35 | 50.82246 | -1.72391 | 1849 ft | 130 kts | 60° |
| 2026-05-03 22:35 | 50.82692 | -1.71155 | 1721 ft | 129 kts | 60° |
| 2026-05-03 22:35 | 50.83131 | -1.69937 | 1588 ft | 126 kts | 60° |
| 2026-05-03 22:35 | 50.83554 | -1.68763 | 1471 ft | 121 kts | 60° |
| 2026-05-03 22:36 | 50.83954 | -1.67667 | 1454 ft | 110 kts | 60° |
| 2026-05-03 22:36 | 50.84338 | -1.66621 | 1451 ft | 109 kts | 60° |
| 2026-05-03 22:36 | 50.84715 | -1.65596 | 1458 ft | 108 kts | 60° |
| 2026-05-03 22:36 | 50.85033 | -1.64517 | 1448 ft | 108 kts | 83° |
| 2026-05-03 22:37 | 50.84863 | -1.63406 | 1463 ft | 105 kts | 128° |
| 2026-05-03 22:37 | 50.84279 | -1.62782 | 1474 ft | 102 kts | 169° |
| 2026-05-03 22:37 | 50.83580 | -1.62765 | 1471 ft | 101 kts | 191° |
| 2026-05-03 22:37 | 50.82901 | -1.63051 | 1469 ft | 101 kts | 200° |
| 2026-05-03 22:38 | 50.82392 | -1.63768 | 1471 ft | 100 kts | 239° |
| 2026-05-03 22:38 | 50.82073 | -1.64741 | 1467 ft | 100 kts | 243° |
| 2026-05-03 22:38 | 50.81769 | -1.65729 | 1471 ft | 100 kts | 244° |
| 2026-05-03 22:38 | 50.81466 | -1.66734 | 1471 ft | 102 kts | 245° |
| 2026-05-03 22:39 | 50.81224 | -1.67782 | 1471 ft | 102 kts | 252° |
| 2026-05-03 22:39 | 50.81014 | -1.68856 | 1475 ft | 102 kts | 252° |
| 2026-05-03 22:39 | 50.80804 | -1.69935 | 1476 ft | 103 kts | 253° |
| 2026-05-03 22:39 | 50.80602 | -1.71022 | 1477 ft | 103 kts | 253° |
| 2026-05-03 22:40 | 50.80402 | -1.72110 | 1479 ft | 102 kts | 253° |
| 2026-05-03 22:40 | 50.80204 | -1.73213 | 1362 ft | 109 kts | 253° |
| 2026-05-03 22:40 | 50.80005 | -1.74341 | 1177 ft | 99 kts | 253° |
| 2026-05-03 22:40 | 50.79832 | -1.75343 | 997 ft | 91 kts | 253° |
| 2026-05-03 22:41 | 50.79662 | -1.76318 | 873 ft | 96 kts | 253° |
| 2026-05-03 22:41 | 50.79483 | -1.77345 | 742 ft | 98 kts | 253° |
| 2026-05-03 22:41 | 50.79213 | -1.78323 | 627 ft | 91 kts | 244° |
| 2026-05-03 22:41 | 50.78994 | -1.79158 | 488 ft | 75 kts | 247° |
| 2026-05-03 22:42 | 50.78817 | -1.79888 | 334 ft | 72 kts | 245° |
| 2026-05-03 22:42 | 50.78634 | -1.80623 | 306 ft | 72 kts | 250° |
| 2026-05-03 22:42 | 50.78489 | -1.81373 | 256 ft | 71 kts | 253° |
| 2026-05-03 22:42 | 50.78359 | -1.82123 | 178 ft | 71 kts | 253° |
| 2026-05-03 22:43 | 50.78240 | -1.82860 | 66 ft | 70 kts | 253° |
| 2026-05-03 22:43 | 50.78126 | -1.83526 | 40 ft | 50 kts | 255° |
| 2026-05-03 22:43 | 50.78075 | -1.83863 | 38 ft | 11 kts | 269° |
| 2026-05-03 22:43 | 50.78129 | -1.83926 | 40 ft | 11 kts | 342° |
| 2026-05-03 22:44 | 50.78221 | -1.83964 | 40 ft | 16 kts | 345° |
| 2026-05-03 22:44 | 50.78327 | -1.84008 | 40 ft | 16 kts | 346° |
| 2026-05-03 22:44 | 50.78419 | -1.84044 | 40 ft | 11 kts | 344° |
| 2026-05-03 22:44 | 50.78465 | -1.84029 | 40 ft | 8 kts | 48° |
| 2026-05-03 22:45 | 50.78455 | -1.83926 | 40 ft | 12 kts | 104° |
| 2026-05-03 22:45 | 50.78433 | -1.83790 | 40 ft | 9 kts | 103° |
| 2026-05-03 22:45 | 50.78415 | -1.83672 | 40 ft | 12 kts | 105° |
| 2026-05-03 22:45 | 50.78408 | -1.83571 | 40 ft | 5 kts | 44° |
| 2026-05-03 22:46 | 50.78426 | -1.83568 | 40 ft | 0 kts | 280° |